Brimson, Minnesota
Current Conditions -  °F | °C
As of 12:14 PM on Wednesday 28 Jan 2015 (Local Time) from KTWM Reporting Station
Overcast Overcast  
Wind Chill: 22°   Ceiling: 900
Heat Index: 28°   Visibility: 7mi
Dew Point: 25°   Wind: 6mph
Humidity: 86%   Direction: 140°SE
Pressure: 29.9"   Gusts: NA
Location:  47.28°N, 91.87°W
Report Text: KTWM 281814Z AUTO 14005KT 7SM OVC009 M02/M04 A2990 RMK AO2
Loading
Personal Weather Stations






























Interactive Weather Map New forecast layout! Learn more

10-Day Weather Forecast

Advertisements
Track Severe Weather on mobile